Time;durP1;ratioP1;P1;durP2;ratioP2;P2;SDS_P1;SDS_P2;PMS_P1;PMS_P2;Temp;Humidity;BMP_temperature;BMP_pressure;BME280_temperature;BME280_humidity;BME280_pressure;Samples;Min_cycle;Max_cycle;Signal;HPM_P1;HPM_P2
2021/05/30 00:02:14;;;;;;;4.97;3.33;;;11.30;99.90;;;;;;4936158;29;20217;-78
2021/05/30 00:04:40;;;;;;;4.70;3.20;;;11.30;99.90;;;;;;4952487;28;20302;-78
2021/05/30 00:07:07;;;;;;;5.53;3.30;;;11.30;99.90;;;;;;4936096;29;20181;-78
2021/05/30 00:09:33;;;;;;;4.80;3.23;;;11.20;99.90;;;;;;4935882;29;20178;-78
2021/05/30 00:11:58;;;;;;;5.33;3.27;;;11.20;99.90;;;;;;4935963;29;20194;-78
2021/05/30 00:14:24;;;;;;;5.27;3.50;;;11.10;99.90;;;;;;4968025;28;20272;-78
2021/05/30 00:16:49;;;;;;;5.23;3.13;;;11.10;99.90;;;;;;4952084;29;20189;-78
2021/05/30 00:19:15;;;;;;;6.07;3.70;;;11.00;99.90;;;;;;4935805;29;20190;-78
2021/05/30 00:21:41;;;;;;;5.50;3.00;;;11.00;99.90;;;;;;4935760;29;20245;-78
2021/05/30 00:24:07;;;;;;;6.37;3.47;;;11.00;99.90;;;;;;4951873;29;20573;-78
2021/05/30 00:26:33;;;;;;;5.60;3.37;;;10.90;99.90;;;;;;4951565;29;20205;-78
2021/05/30 00:28:58;;;;;;;5.37;3.30;;;10.90;99.90;;;;;;4935618;29;20201;-78
2021/05/30 00:31:24;;;;;;;5.20;3.53;;;10.90;99.90;;;;;;4935402;29;20210;-78
2021/05/30 00:33:49;;;;;;;4.93;3.17;;;10.90;99.90;;;;;;4935837;29;20182;-78
2021/05/30 00:36:15;;;;;;;5.10;3.20;;;10.80;99.90;;;;;;4951763;28;20182;-78
2021/05/30 00:38:40;;;;;;;5.47;3.53;;;10.80;99.90;;;;;;4935537;29;20228;-78
2021/05/30 00:41:06;;;;;;;5.77;3.30;;;10.70;99.90;;;;;;4951534;28;20216;-78
2021/05/30 00:43:43;;;;;;;5.40;3.50;;;10.60;99.90;;;;;;4951527;28;20209;-78
2021/05/30 00:46:08;;;;;;;4.77;3.10;;;10.60;99.90;;;;;;4935374;29;20237;-78
2021/05/30 00:48:34;;;;;;;5.87;3.63;;;10.50;99.90;;;;;;4951314;29;20267;-78
2021/05/30 00:51:01;;;;;;;5.67;3.43;;;10.50;99.90;;;;;;4935038;29;20206;-78
2021/05/30 00:53:26;;;;;;;4.57;3.23;;;10.50;99.90;;;;;;4951466;28;20181;-78
2021/05/30 00:55:52;;;;;;;5.87;3.27;;;10.40;99.90;;;;;;4951662;29;20277;-78
2021/05/30 00:58:17;;;;;;;7.50;3.67;;;10.40;99.90;;;;;;4935182;29;20182;-78
2021/05/30 01:00:43;;;;;;;5.07;3.50;;;10.30;99.90;;;;;;4951008;29;20205;-78
2021/05/30 01:03:08;;;;;;;5.93;3.73;;;10.30;99.90;;;;;;4951375;29;20233;-78
2021/05/30 01:05:34;;;;;;;5.03;3.40;;;10.30;99.90;;;;;;4951224;29;20186;-78
2021/05/30 01:07:59;;;;;;;4.63;3.10;;;10.20;99.90;;;;;;4951200;28;20269;-78
2021/05/30 01:10:34;;;;;;;6.67;3.90;;;10.20;99.90;;;;;;4966874;28;20202;-78
2021/05/30 01:13:00;;;;;;;5.47;3.57;;;10.10;99.90;;;;;;4935180;29;20207;-78
2021/05/30 01:15:26;;;;;;;4.57;3.67;;;10.10;99.90;;;;;;4934682;29;20190;-78
2021/05/30 01:17:53;;;;;;;6.80;3.67;;;10.10;99.90;;;;;;4950981;29;20720;-78
2021/05/30 01:20:19;;;;;;;5.97;3.83;;;10.10;99.90;;;;;;4950688;29;20198;-78
2021/05/30 01:22:45;;;;;;;7.00;3.80;;;10.00;99.90;;;;;;4934875;29;20634;-78
2021/05/30 01:25:12;;;;;;;6.17;3.70;;;10.00;99.90;;;;;;4950596;28;20197;-78
2021/05/30 01:27:38;;;;;;;7.13;3.67;;;10.00;99.90;;;;;;4934649;29;20189;-78
2021/05/30 01:30:05;;;;;;;5.80;3.77;;;10.00;99.90;;;;;;4934411;29;20208;-78
2021/05/30 01:32:31;;;;;;;8.87;4.40;;;10.00;99.90;;;;;;4934596;29;20189;-78
2021/05/30 01:34:56;;;;;;;5.67;3.83;;;10.00;99.90;;;;;;4950465;29;20189;-78
2021/05/30 01:37:22;;;;;;;6.87;4.20;;;10.00;99.90;;;;;;4950596;29;20190;-78
2021/05/30 01:39:48;;;;;;;6.57;4.17;;;10.00;99.90;;;;;;4933970;29;20190;-78
2021/05/30 01:42:13;;;;;;;7.93;4.20;;;9.90;99.90;;;;;;4934577;29;20213;-78
2021/05/30 01:44:39;;;;;;;6.37;4.13;;;9.90;99.90;;;;;;4966474;28;20177;-78
2021/05/30 01:47:04;;;;;;;7.10;3.97;;;9.80;99.90;;;;;;4934344;29;20197;-78
2021/05/30 01:49:30;;;;;;;7.03;4.13;;;9.80;99.90;;;;;;4934110;29;20569;-78
2021/05/30 01:51:55;;;;;;;5.50;4.10;;;9.80;99.90;;;;;;4949838;28;20205;-78
2021/05/30 01:54:21;;;;;;;7.77;4.37;;;9.70;99.90;;;;;;4934321;29;20298;-78
2021/05/30 01:56:56;;;;;;;6.40;4.10;;;9.70;99.90;;;;;;4934199;29;20190;-78
2021/05/30 01:59:22;;;;;;;6.93;3.87;;;9.70;99.90;;;;;;4933876;29;20316;-78
2021/05/30 02:01:52;;;;;;;6.77;4.43;;;9.70;99.90;;;;;;4950000;29;20676;-78
2021/05/30 02:04:18;;;;;;;6.83;4.40;;;9.70;99.90;;;;;;4933825;29;20187;-78
2021/05/30 02:06:43;;;;;;;7.53;4.30;;;9.70;99.90;;;;;;4934041;29;20181;-78
2021/05/30 02:09:10;;;;;;;5.97;4.03;;;9.80;99.90;;;;;;4933820;29;20184;-78
2021/05/30 02:14:57;;;;;;;8.73;4.40;;;9.80;99.90;;;;;;4934717;29;20228;-78
2021/05/30 02:17:23;;;;;;;7.50;4.13;;;9.70;99.90;;;;;;4965708;28;20181;-78
2021/05/30 02:19:49;;;;;;;7.13;3.90;;;9.70;99.90;;;;;;4933707;29;20178;-78
2021/05/30 02:22:15;;;;;;;7.40;4.33;;;9.70;99.90;;;;;;4949620;29;20550;-78
2021/05/30 02:24:40;;;;;;;8.83;4.90;;;9.60;99.90;;;;;;4949791;28;20251;-78
2021/05/30 02:27:06;;;;;;;8.23;4.73;;;9.60;99.90;;;;;;4949616;29;20185;-78
2021/05/30 02:29:36;;;;;;;10.23;4.50;;;9.60;99.90;;;;;;4949555;29;20190;-78
2021/05/30 02:32:06;;;;;;;8.70;4.20;;;9.60;99.90;;;;;;4949316;28;20177;-78
2021/05/30 02:34:32;;;;;;;8.50;4.23;;;9.60;99.90;;;;;;4949604;29;20214;-78
2021/05/30 02:36:57;;;;;;;7.77;4.20;;;9.50;99.90;;;;;;4949739;29;20212;-78
2021/05/30 02:39:23;;;;;;;9.40;4.27;;;9.50;99.90;;;;;;4949437;29;20185;-78
2021/05/30 02:41:48;;;;;;;10.13;4.37;;;9.50;99.90;;;;;;4933188;29;20239;-78
2021/05/30 02:44:14;;;;;;;7.20;4.10;;;9.50;99.90;;;;;;4933475;29;20190;-77
2021/05/30 02:46:40;;;;;;;9.87;4.40;;;9.40;99.90;;;;;;4950676;29;20177;-78
2021/05/30 02:49:05;;;;;;;7.40;4.77;;;9.40;99.90;;;;;;4933385;29;20181;-77
2021/05/30 02:51:32;;;;;;;9.07;4.53;;;9.30;99.90;;;;;;4933405;29;20233;-78
2021/05/30 02:53:58;;;;;;;7.17;4.37;;;9.30;99.90;;;;;;4949365;29;20650;-78
2021/05/30 02:56:24;;;;;;;10.30;4.60;;;9.30;99.90;;;;;;4949531;29;20185;-78
2021/05/30 02:58:49;;;;;;;8.10;4.67;;;9.30;99.90;;;;;;4933348;29;20193;-78
2021/05/30 03:01:15;;;;;;;8.40;4.70;;;9.20;99.90;;;;;;4949297;29;20212;-78
2021/05/30 03:03:40;;;;;;;7.43;4.10;;;9.20;99.90;;;;;;4933844;29;20227;-78
2021/05/30 03:06:06;;;;;;;8.40;4.47;;;9.20;99.90;;;;;;4937612;29;20181;-78
2021/05/30 03:08:31;;;;;;;8.07;4.83;;;9.20;99.90;;;;;;4953129;29;20553;-78
2021/05/30 03:10:57;;;;;;;8.10;4.63;;;9.20;99.90;;;;;;4953016;28;20206;-78
2021/05/30 03:13:23;;;;;;;7.23;4.87;;;9.10;99.90;;;;;;4937172;29;20181;-78
2021/05/30 03:15:48;;;;;;;9.43;4.60;;;9.10;99.90;;;;;;4953177;28;20552;-78
2021/05/30 03:18:14;;;;;;;9.50;5.40;;;9.00;99.90;;;;;;4936975;29;20331;-78
2021/05/30 03:20:39;;;;;;;8.13;4.47;;;9.00;99.90;;;;;;4936780;29;20300;-78
2021/05/30 03:23:05;;;;;;;7.97;4.73;;;9.00;99.90;;;;;;4935686;29;20635;-78
2021/05/30 03:25:30;;;;;;;12.67;5.67;;;9.00;99.90;;;;;;4936333;29;20196;-78
2021/05/30 03:27:56;;;;;;;8.50;5.10;;;9.00;99.90;;;;;;4952632;29;20187;-78
2021/05/30 03:30:21;;;;;;;8.63;4.63;;;9.00;99.90;;;;;;4936515;29;20681;-78
2021/05/30 03:32:47;;;;;;;9.87;5.10;;;9.00;99.90;;;;;;4953113;29;20577;-78
2021/05/30 03:35:13;;;;;;;7.47;4.80;;;9.00;99.90;;;;;;4967419;28;20184;-78
2021/05/30 03:37:40;;;;;;;7.87;4.30;;;9.00;99.90;;;;;;4969506;28;20211;-78
2021/05/30 03:40:12;;;;;;;8.90;4.60;;;9.00;99.90;;;;;;4952248;29;20290;-78
2021/05/30 03:42:50;;;;;;;7.20;4.47;;;9.00;99.90;;;;;;4967728;29;20244;-77
2021/05/30 03:45:16;;;;;;;10.30;5.00;;;8.90;99.90;;;;;;4983344;28;20196;-77
2021/05/30 03:47:42;;;;;;;8.67;4.93;;;9.00;99.90;;;;;;4953117;29;20184;-78
2021/05/30 03:50:08;;;;;;;8.10;4.60;;;9.00;99.90;;;;;;4953014;29;20208;-78
2021/05/30 03:52:33;;;;;;;8.30;5.07;;;8.90;99.90;;;;;;4986627;28;20177;-78
2021/05/30 03:54:59;;;;;;;8.87;4.67;;;8.90;99.90;;;;;;4956458;29;20284;-78
2021/05/30 03:57:25;;;;;;;7.93;4.53;;;8.90;99.90;;;;;;4972374;28;20179;-77
2021/05/30 03:59:50;;;;;;;9.70;5.03;;;8.90;99.90;;;;;;4955306;29;20193;-78
2021/05/30 04:02:16;;;;;;;8.77;4.60;;;9.00;99.90;;;;;;4955949;29;20204;-78
2021/05/30 04:04:41;;;;;;;9.97;5.20;;;8.90;99.90;;;;;;4955526;29;20193;-78
2021/05/30 04:07:07;;;;;;;9.53;5.00;;;8.90;99.90;;;;;;4972276;28;20214;-77
2021/05/30 04:09:35;;;;;;;9.97;4.67;;;8.90;99.90;;;;;;4969699;28;20178;-78
2021/05/30 04:12:00;;;;;;;10.60;4.87;;;8.90;99.90;;;;;;4970015;29;20178;-78
2021/05/30 04:14:26;;;;;;;8.90;4.67;;;8.90;99.90;;;;;;4954084;29;20339;-78
2021/05/30 04:16:51;;;;;;;9.70;5.03;;;8.90;99.90;;;;;;4954115;29;20182;-77
2021/05/30 04:19:17;;;;;;;9.50;5.30;;;9.00;99.90;;;;;;4969622;28;20245;-77
2021/05/30 04:21:42;;;;;;;10.23;5.23;;;9.00;99.90;;;;;;4954397;29;20220;-78
2021/05/30 04:24:08;;;;;;;10.30;4.90;;;9.00;99.90;;;;;;4970591;28;20193;-78
2021/05/30 04:26:34;;;;;;;8.77;4.90;;;9.10;99.90;;;;;;4971559;28;20192;-77
2021/05/30 04:28:59;;;;;;;9.63;5.10;;;9.10;99.90;;;;;;4970426;29;20279;-77
2021/05/30 04:31:26;;;;;;;9.23;5.27;;;9.20;99.90;;;;;;4972006;28;20191;-78
2021/05/30 04:33:51;;;;;;;9.27;5.43;;;9.20;99.90;;;;;;4974389;28;20188;-77
2021/05/30 04:36:17;;;;;;;9.17;5.23;;;9.30;99.90;;;;;;4973104;28;20193;-78
2021/05/30 04:38:42;;;;;;;9.83;5.13;;;9.40;99.90;;;;;;4973460;28;20178;-77
2021/05/30 04:41:08;;;;;;;10.80;5.73;;;9.50;99.90;;;;;;4953743;29;20214;-77
2021/05/30 04:43:34;;;;;;;9.07;5.13;;;9.60;99.90;;;;;;4970874;29;20269;-77
2021/05/30 04:45:59;;;;;;;8.57;5.27;;;9.50;99.90;;;;;;4972275;28;20181;-78
2021/05/30 04:48:25;;;;;;;10.90;5.50;;;9.60;99.90;;;;;;4970262;28;20185;-78
2021/05/30 04:51:06;;;;;;;8.13;4.87;;;9.60;99.90;;;;;;4955219;29;20597;-77
2021/05/30 04:53:37;;;;;;;9.87;5.70;;;9.70;99.90;;;;;;4983872;28;20184;-78
2021/05/30 04:56:03;;;;;;;8.57;4.60;;;9.70;99.90;;;;;;4956706;29;20189;-77
2021/05/30 04:58:29;;;;;;;10.70;4.97;;;9.70;99.90;;;;;;4971697;28;20185;-77
2021/05/30 05:00:54;;;;;;;10.07;5.27;;;9.70;99.90;;;;;;4973381;28;20557;-78
2021/05/30 05:03:20;;;;;;;9.13;5.33;;;9.90;99.90;;;;;;4988007;28;20213;-77
2021/05/30 05:05:46;;;;;;;8.03;4.83;;;9.90;99.90;;;;;;4972586;28;20181;-78
2021/05/30 05:08:11;;;;;;;7.97;4.87;;;9.90;99.90;;;;;;4973523;28;20178;-77
2021/05/30 05:10:37;;;;;;;10.87;5.17;;;10.00;99.90;;;;;;4958272;28;20204;-77
2021/05/30 05:13:02;;;;;;;9.23;5.17;;;10.20;99.90;;;;;;4958310;29;20181;-76
2021/05/30 05:15:28;;;;;;;12.77;4.60;;;10.30;99.90;;;;;;4973813;28;20190;-78
2021/05/30 05:17:53;;;;;;;8.53;4.87;;;10.40;99.90;;;;;;4989359;28;20187;-78
2021/05/30 05:20:19;;;;;;;10.23;5.10;;;10.60;99.90;;;;;;4956967;29;20237;-77
2021/05/30 05:22:45;;;;;;;7.30;4.83;;;10.70;99.90;;;;;;4986741;28;20293;-77
2021/05/30 05:25:11;;;;;;;10.47;5.07;;;10.80;99.90;;;;;;4959964;28;20213;-78
2021/05/30 05:27:36;;;;;;;9.13;5.13;;;10.90;99.90;;;;;;4972059;28;20181;-77
2021/05/30 05:30:03;;;;;;;9.10;4.73;;;11.10;99.90;;;;;;4970509;29;20205;-77
2021/05/30 05:32:28;;;;;;;9.87;5.03;;;11.30;99.90;;;;;;4963425;29;20193;-77
2021/05/30 05:34:54;;;;;;;10.03;5.07;;;11.40;99.90;;;;;;4966067;29;20189;-77
2021/05/30 05:37:19;;;;;;;9.33;4.70;;;11.60;99.90;;;;;;4981732;28;20184;-77
2021/05/30 05:39:45;;;;;;;8.17;4.60;;;11.80;99.90;;;;;;4966040;28;20376;-77
2021/05/30 05:42:10;;;;;;;8.17;4.57;;;12.50;99.90;;;;;;4982679;28;20214;-78
2021/05/30 05:44:36;;;;;;;8.97;4.87;;;13.10;99.90;;;;;;4985149;28;20181;-77
2021/05/30 05:47:04;;;;;;;8.33;4.60;;;13.60;99.90;;;;;;4975489;28;20174;-77
2021/05/30 05:49:31;;;;;;;8.50;4.80;;;13.80;99.90;;;;;;4965666;28;20179;-76
2021/05/30 05:51:56;;;;;;;10.47;4.97;;;13.90;99.90;;;;;;4983805;28;20213;-78
2021/05/30 05:54:22;;;;;;;7.13;5.00;;;14.30;99.90;;;;;;4967224;28;20179;-77
2021/05/30 05:56:47;;;;;;;8.90;4.80;;;14.60;99.90;;;;;;4975488;28;20226;-81
2021/05/30 05:59:13;;;;;;;7.57;4.83;;;15.10;99.90;;;;;;4954451;29;20223;-83
2021/05/30 06:01:39;;;;;;;7.33;4.80;;;15.20;99.90;;;;;;4963918;29;20190;-83
2021/05/30 06:04:04;;;;;;;9.10;5.33;;;15.20;99.90;;;;;;4945039;29;20217;-83
2021/05/30 06:06:31;;;;;;;8.07;4.67;;;15.70;99.90;;;;;;4959522;29;20180;-83
2021/05/30 06:08:57;;;;;;;7.60;5.00;;;16.50;99.90;;;;;;4962850;29;20175;-82
2021/05/30 06:11:22;;;;;;;6.80;4.60;;;17.20;99.90;;;;;;4961134;29;20232;-82
2021/05/30 06:13:48;;;;;;;6.77;4.70;;;17.70;99.90;;;;;;4959712;29;20193;-83
2021/05/30 06:16:13;;;;;;;10.50;6.10;;;17.90;99.90;;;;;;4941957;29;20182;-84
2021/05/30 06:18:39;;;;;;;8.73;4.40;;;18.20;99.90;;;;;;4955300;29;20234;-83
2021/05/30 06:21:04;;;;;;;9.80;4.93;;;18.40;99.90;;;;;;4939250;29;20701;-79
2021/05/30 06:23:30;;;;;;;7.13;4.67;;;18.10;99.90;;;;;;4938778;29;20235;-82
2021/05/30 06:25:55;;;;;;;7.33;4.60;;;17.80;99.90;;;;;;4938713;29;20186;-81
2021/05/30 06:28:21;;;;;;;7.80;4.70;;;17.30;99.90;;;;;;4954490;28;20175;-82
2021/05/30 06:30:46;;;;;;;6.90;4.50;;;16.90;99.90;;;;;;4969589;28;20224;-83
2021/05/30 06:33:12;;;;;;;8.67;4.87;;;16.50;99.90;;;;;;4929317;29;20189;-82
2021/05/30 06:35:39;;;;;;;6.40;4.50;;;16.30;99.90;;;;;;4968365;28;20188;-81
2021/05/30 06:38:06;;;;;;;8.77;4.50;;;16.20;99.90;;;;;;4944503;29;20185;-81
2021/05/30 06:40:32;;;;;;;8.10;4.60;;;16.00;99.90;;;;;;4960684;28;20211;-81
2021/05/30 06:42:57;;;;;;;7.47;4.77;;;16.20;99.90;;;;;;4948611;29;20304;-82
2021/05/30 06:45:23;;;;;;;8.27;5.00;;;16.40;99.90;;;;;;4948009;29;20634;-83
2021/05/30 06:47:48;;;;;;;7.37;4.07;;;16.60;99.90;;;;;;4938563;29;20650;-84
2021/05/30 06:50:14;;;;;;;9.10;4.90;;;16.50;99.90;;;;;;4956993;29;20202;-83
2021/05/30 06:52:40;;;;;;;8.37;5.13;;;16.60;99.90;;;;;;4940061;29;20201;-83
2021/05/30 06:55:06;;;;;;;8.63;4.70;;;16.60;99.90;;;;;;4941610;29;20564;-83
2021/05/30 06:57:31;;;;;;;5.77;4.37;;;16.40;99.90;;;;;;4941320;29;20193;-83
2021/05/30 06:59:57;;;;;;;5.73;3.97;;;16.50;99.90;;;;;;4941180;29;20197;-83
2021/05/30 07:02:22;;;;;;;6.73;4.03;;;16.60;99.90;;;;;;4956637;29;20197;-82
2021/05/30 07:04:48;;;;;;;8.53;4.57;;;16.70;99.90;;;;;;4941085;29;20269;-86
2021/05/30 07:07:14;;;;;;;6.90;4.80;;;16.80;99.90;;;;;;4958101;29;20269;-83
2021/05/30 07:10:00;;;;;;;8.27;4.03;;;16.90;99.90;;;;;;4947119;29;20185;-82
2021/05/30 07:12:25;;;;;;;7.60;4.33;;;16.90;99.90;;;;;;4979767;28;20193;-82
2021/05/30 07:14:51;;;;;;;8.10;4.23;;;17.00;99.90;;;;;;4943602;29;20174;-81
2021/05/30 07:17:17;;;;;;;5.60;4.23;;;17.10;99.90;;;;;;4945756;29;20257;-83
2021/05/30 07:19:46;;;;;;;7.23;4.20;;;17.20;99.90;;;;;;4937390;29;20186;-83
2021/05/30 07:22:12;;;;;;;7.47;4.27;;;17.30;99.90;;;;;;4944147;29;20205;-82
2021/05/30 07:24:37;;;;;;;6.50;4.27;;;17.20;99.90;;;;;;4958129;29;20229;-83
2021/05/30 07:27:03;;;;;;;6.07;3.57;;;17.20;99.90;;;;;;4960592;29;20249;-80
2021/05/30 07:29:29;;;;;;;4.80;3.50;;;17.60;99.90;;;;;;4955134;29;20213;-80
2021/05/30 07:31:54;;;;;;;5.93;3.87;;;18.10;99.90;;;;;;4938152;29;20202;-80
2021/05/30 07:34:20;;;;;;;6.53;3.40;;;18.50;99.90;;;;;;4954070;29;20185;-82
2021/05/30 07:36:45;;;;;;;4.67;3.13;;;18.60;99.90;;;;;;4956042;29;20236;-80
2021/05/30 07:39:11;;;;;;;6.20;3.60;;;18.20;99.90;;;;;;4954048;29;20202;-82
2021/05/30 07:41:36;;;;;;;5.77;3.40;;;17.70;99.90;;;;;;4971508;28;20237;-82
2021/05/30 07:44:02;;;;;;;5.77;3.30;;;17.70;99.90;;;;;;4940303;29;20236;-81
2021/05/30 07:46:28;;;;;;;4.37;3.07;;;17.40;99.90;;;;;;4955035;29;20185;-84
2021/05/30 07:48:53;;;;;;;4.83;2.80;;;17.60;99.90;;;;;;4967196;28;20200;-80
2021/05/30 07:51:20;;;;;;;5.47;2.90;;;17.60;99.90;;;;;;4946525;29;20217;-84
2021/05/30 07:53:46;;;;;;;3.77;2.53;;;18.00;99.90;;;;;;4964024;28;20701;-77
2021/05/30 07:56:11;;;;;;;3.37;2.37;;;17.80;99.90;;;;;;4948403;29;20185;-78
2021/05/30 07:58:38;;;;;;;4.00;2.67;;;17.80;99.90;;;;;;4956988;29;20196;-81
2021/05/30 08:01:04;;;;;;;4.87;3.10;;;18.10;99.90;;;;;;4975808;28;20210;-87
2021/05/30 08:03:29;;;;;;;4.00;2.80;;;18.30;99.90;;;;;;4928937;29;20244;-83
2021/05/30 08:05:55;;;;;;;4.47;2.30;;;18.70;99.90;;;;;;4944483;29;20178;-81
2021/05/30 08:08:22;;;;;;;4.47;2.60;;;18.70;99.90;;;;;;4943589;29;20556;-82
2021/05/30 08:10:48;;;;;;;5.93;2.57;;;18.70;99.90;;;;;;4947067;29;20273;-84
2021/05/30 08:13:14;;;;;;;3.40;2.50;;;18.50;99.90;;;;;;4945512;29;20185;-83
2021/05/30 08:15:40;;;;;;;4.60;2.37;;;18.50;99.90;;;;;;4964954;29;20171;-85
2021/05/30 08:18:05;;;;;;;3.43;2.63;;;18.60;99.90;;;;;;4965609;29;20210;-81
2021/05/30 08:20:31;;;;;;;4.97;2.60;;;18.50;99.90;;;;;;4945962;29;20704;-83
2021/05/30 08:22:57;;;;;;;4.47;2.73;;;18.60;99.90;;;;;;4946180;29;20297;-80
2021/05/30 08:25:22;;;;;;;3.50;2.57;;;18.90;99.90;;;;;;4963496;29;20209;-82
2021/05/30 08:27:48;;;;;;;3.40;2.33;;;19.20;99.90;;;;;;4949484;29;20186;-79
2021/05/30 08:30:14;;;;;;;2.80;2.10;;;19.30;99.90;;;;;;4964617;29;20662;-80
2021/05/30 08:32:40;;;;;;;4.83;2.67;;;19.20;99.90;;;;;;4965132;29;20206;-81
2021/05/30 08:35:06;;;;;;;3.63;2.70;;;19.10;99.90;;;;;;4963741;29;20178;-80
2021/05/30 08:37:32;;;;;;;3.13;2.33;;;19.10;99.90;;;;;;4947904;29;20681;-81
2021/05/30 08:39:58;;;;;;;2.37;1.80;;;19.10;99.90;;;;;;4962006;29;20194;-82
2021/05/30 08:42:23;;;;;;;4.43;2.23;;;19.10;99.90;;;;;;4943832;29;20292;-80
2021/05/30 08:44:50;;;;;;;2.80;2.20;;;19.10;99.90;;;;;;4958968;29;20209;-85
2021/05/30 08:47:20;;;;;;;5.87;2.33;;;18.90;99.90;;;;;;4961426;29;20182;-81
2021/05/30 08:49:46;;;;;;;3.50;2.20;;;19.00;99.90;;;;;;4943669;29;20186;-82
2021/05/30 08:52:12;;;;;;;2.93;1.90;;;18.90;99.90;;;;;;4945442;29;20257;-83
2021/05/30 08:54:38;;;;;;;3.43;1.87;;;18.90;99.90;;;;;;4944091;29;20186;-81
2021/05/30 08:57:03;;;;;;;3.00;1.70;;;19.10;99.90;;;;;;4957194;29;20178;-80
2021/05/30 08:59:30;;;;;;;2.67;1.83;;;19.00;99.90;;;;;;4955521;29;20217;-81
2021/05/30 09:02:13;;;;;;;3.23;2.03;;;19.00;99.90;;;;;;4947023;29;20206;-81
2021/05/30 09:04:41;;;;;;;2.30;1.63;;;18.90;99.90;;;;;;4947032;29;20635;-82
2021/05/30 09:07:16;;;;;;;2.47;1.70;;;19.10;99.90;;;;;;4960079;29;20193;-83
2021/05/30 09:09:43;;;;;;;3.33;1.63;;;19.20;99.90;;;;;;4942726;29;20527;-81
2021/05/30 09:12:19;;;;;;;4.20;2.03;;;19.10;99.90;;;;;;4960589;29;20182;-82
2021/05/30 09:14:47;;;;;;;3.70;1.80;;;19.10;99.90;;;;;;4944637;29;20272;-82
2021/05/30 09:17:12;;;;;;;2.73;1.47;;;19.10;99.90;;;;;;4964225;28;20190;-82
2021/05/30 09:19:44;;;;;;;2.57;2.20;;;19.20;99.90;;;;;;4945001;29;20186;-84
2021/05/30 09:22:14;;;;;;;4.70;2.20;;;19.30;99.90;;;;;;4960198;29;20775;-83
2021/05/30 09:24:39;;;;;;;3.63;2.20;;;19.20;99.90;;;;;;4974001;28;20201;-81
2021/05/30 09:27:11;;;;;;;2.63;1.73;;;19.40;99.90;;;;;;4937493;29;20650;-80
2021/05/30 09:29:36;;;;;;;2.70;1.80;;;19.40;99.90;;;;;;4937328;29;20186;-84
2021/05/30 09:32:02;;;;;;;1.57;1.47;;;19.40;99.90;;;;;;4967133;28;20180;-82
2021/05/30 09:34:31;;;;;;;2.50;1.40;;;19.50;99.90;;;;;;4926332;29;20190;-80
2021/05/30 09:36:57;;;;;;;2.63;1.57;;;19.40;99.90;;;;;;4939541;29;20219;-79
2021/05/30 09:39:35;;;;;;;2.33;1.60;;;19.40;99.90;;;;;;4941790;29;20265;-79
2021/05/30 09:42:20;;;;;;;2.37;2.00;;;19.50;99.90;;;;;;4960333;28;20251;-79
2021/05/30 09:44:55;;;;;;;6.17;2.47;;;19.50;99.90;;;;;;4953447;29;20174;-81
2021/05/30 09:47:50;;;;;;;2.83;1.80;;;19.60;99.90;;;;;;4952436;29;20581;-82
2021/05/30 09:50:18;;;;;;;2.53;1.80;;;19.90;99.90;;;;;;4931128;29;20693;-81
2021/05/30 09:52:51;;;;;;;4.00;2.07;;;20.10;99.90;;;;;;4971427;28;20177;-83
2021/05/30 09:55:20;;;;;;;3.13;2.00;;;20.10;99.90;;;;;;4954479;29;20650;-79
2021/05/30 09:58:14;;;;;;;2.13;1.90;;;20.00;99.90;;;;;;4956509;29;20186;-81
2021/05/30 10:00:41;;;;;;;3.13;2.03;;;19.70;99.90;;;;;;4972964;28;20229;-83
2021/05/30 10:03:07;;;;;;;2.10;1.70;;;19.80;99.90;;;;;;4957104;29;20284;-81
2021/05/30 10:05:34;;;;;;;3.00;2.07;;;20.00;99.90;;;;;;4941085;29;20209;-83
2021/05/30 10:08:00;;;;;;;2.63;1.80;;;20.00;99.90;;;;;;4958505;29;20162;-83
2021/05/30 10:10:26;;;;;;;2.83;1.73;;;20.00;99.90;;;;;;4942429;29;20204;-84
2021/05/30 10:12:52;;;;;;;3.00;1.83;;;19.90;99.90;;;;;;4942402;29;20211;-82
2021/05/30 10:15:18;;;;;;;2.77;1.80;;;19.90;99.90;;;;;;4959174;29;20185;-81
2021/05/30 10:17:43;;;;;;;2.60;1.83;;;19.90;99.90;;;;;;4962741;29;20352;-82
2021/05/30 10:20:11;;;;;;;3.37;2.27;;;20.10;99.90;;;;;;4942242;29;20900;-82
2021/05/30 10:22:38;;;;;;;2.80;2.10;;;20.20;99.90;;;;;;4953626;29;20693;-79
2021/05/30 10:25:04;;;;;;;2.40;1.80;;;20.40;99.90;;;;;;4937534;29;20197;-79
2021/05/30 10:27:30;;;;;;;2.93;2.23;;;20.30;99.90;;;;;;4954069;29;20252;-80
2021/05/30 10:30:11;;;;;;;3.40;2.30;;;20.20;99.90;;;;;;4970973;28;20799;-81
2021/05/30 10:32:38;;;;;;;3.13;2.00;;;20.10;99.90;;;;;;4954365;29;20325;-79
2021/05/30 10:35:23;;;;;;;3.40;1.97;;;20.00;99.90;;;;;;4954003;29;20185;-80
2021/05/30 10:37:56;;;;;;;2.10;1.70;;;20.10;99.90;;;;;;4968000;28;20189;-79
2021/05/30 10:40:24;;;;;;;2.50;1.60;;;20.20;99.90;;;;;;4953180;29;20280;-78
2021/05/30 10:43:08;;;;;;;2.17;1.70;;;20.40;99.90;;;;;;4954521;28;20197;-78
2021/05/30 10:46:00;;;;;;;2.03;1.60;;;20.50;99.90;;;;;;4953934;29;20200;-78
2021/05/30 10:48:25;;;;;;;1.83;1.23;;;20.60;99.90;;;;;;4949041;29;20188;-82
2021/05/30 10:51:13;;;;;;;1.50;1.40;;;20.80;99.90;;;;;;4955028;29;20189;-80
2021/05/30 10:53:50;;;;;;;1.17;1.00;;;20.90;99.90;;;;;;4936948;29;20183;-80
2021/05/30 10:56:23;;;;;;;1.93;1.20;;;20.60;99.90;;;;;;4945720;29;20264;-80
2021/05/30 10:59:04;;;;;;;1.87;1.37;;;20.80;99.90;;;;;;4964760;28;20171;-82
2021/05/30 11:01:44;;;;;;;4.07;1.60;;;20.90;99.90;;;;;;4939601;29;20194;-80
2021/05/30 11:04:28;;;;;;;1.43;1.10;;;20.90;99.90;;;;;;4943754;29;20194;-80
2021/05/30 11:07:01;;;;;;;1.37;1.13;;;21.00;99.90;;;;;;4954589;28;20178;-80
2021/05/30 11:09:58;;;;;;;1.30;1.00;;;21.00;99.90;;;;;;4966771;28;20168;-80
2021/05/30 11:12:27;;;;;;;1.40;1.10;;;21.00;99.90;;;;;;4969208;28;20183;-80
2021/05/30 11:15:08;;;;;;;1.93;1.27;;;20.90;99.90;;;;;;4950938;29;20670;-80
2021/05/30 11:17:43;;;;;;;1.77;1.10;;;21.10;99.90;;;;;;4936681;29;20170;-80
2021/05/30 11:20:16;;;;;;;1.30;1.10;;;21.20;99.90;;;;;;4951411;28;20296;-80
2021/05/30 11:23:11;;;;;;;1.53;1.17;;;21.30;99.90;;;;;;4940109;29;20582;-82
2021/05/30 11:25:48;;;;;;;1.50;1.20;;;21.30;99.90;;;;;;4943387;29;20288;-82
2021/05/30 11:28:14;;;;;;;2.80;1.53;;;21.30;99.90;;;;;;4947829;29;20199;-83
2021/05/30 11:30:50;;;;;;;3.07;1.37;;;21.20;99.90;;;;;;4977665;28;20190;-82
2021/05/30 11:33:22;;;;;;;1.77;1.40;;;21.30;99.90;;;;;;4961230;29;20185;-81
2021/05/30 11:35:56;;;;;;;2.37;1.20;;;21.20;99.90;;;;;;4977566;28;20185;-83
2021/05/30 11:38:41;;;;;;;2.77;0.90;;;21.30;99.90;;;;;;4960871;28;20654;-80
2021/05/30 11:41:23;;;;;;;1.53;1.17;;;21.40;99.90;;;;;;4966239;28;20266;-82
2021/05/30 11:44:12;;;;;;;1.23;1.13;;;21.60;99.90;;;;;;4977065;28;20198;-81
2021/05/30 11:46:50;;;;;;;1.13;0.87;;;21.70;99.90;;;;;;4972236;28;20186;-81
2021/05/30 11:49:21;;;;;;;2.93;1.00;;;21.70;99.90;;;;;;4955318;29;20182;-81
2021/05/30 11:51:52;;;;;;;2.23;1.23;;;21.60;99.20;;;;;;4960294;29;20193;-81
2021/05/30 11:54:19;;;;;;;1.63;1.30;;;21.50;99.90;;;;;;4958968;28;20646;-80
2021/05/30 11:56:45;;;;;;;1.60;1.50;;;21.50;99.90;;;;;;4960639;28;20210;-80
2021/05/30 11:59:11;;;;;;;1.40;1.30;;;21.50;99.90;;;;;;4965121;28;20753;-79
2021/05/30 12:01:43;;;;;;;2.10;1.23;;;21.40;99.90;;;;;;4950169;29;20292;-80
2021/05/30 12:04:21;;;;;;;1.43;1.23;;;21.50;99.90;;;;;;4945678;29;20233;-81
2021/05/30 12:06:46;;;;;;;1.57;1.30;;;21.60;99.90;;;;;;4945243;29;20229;-85
2021/05/30 12:09:13;;;;;;;2.60;1.20;;;21.70;99.90;;;;;;4958158;29;20182;-82
2021/05/30 12:11:40;;;;;;;1.87;1.17;;;21.60;99.90;;;;;;4974058;28;20201;-82
2021/05/30 12:14:05;;;;;;;1.57;1.30;;;21.60;99.90;;;;;;4959180;29;20186;-80
2021/05/30 12:16:31;;;;;;;1.70;1.17;;;21.70;99.90;;;;;;4955751;29;20245;-81
2021/05/30 12:19:00;;;;;;;1.83;0.90;;;21.50;99.90;;;;;;4955314;29;20174;-83
2021/05/30 12:21:43;;;;;;;1.77;1.10;;;21.40;99.90;;;;;;4954012;29;20224;-81
2021/05/30 12:24:10;;;;;;;1.23;1.00;;;21.10;99.90;;;;;;4953933;29;20699;-82
2021/05/30 12:26:36;;;;;;;1.40;1.10;;;21.20;99.90;;;;;;4954748;29;20249;-81
2021/05/30 12:29:01;;;;;;;1.87;0.90;;;21.40;99.90;;;;;;4954496;29;20317;-81
2021/05/30 12:31:27;;;;;;;1.20;1.00;;;21.50;99.90;;;;;;4939194;29;20702;-81
2021/05/30 12:33:53;;;;;;;1.53;1.10;;;21.40;99.90;;;;;;4957008;29;20662;-81
2021/05/30 12:36:36;;;;;;;1.10;1.00;;;21.40;99.90;;;;;;4955267;28;20206;-82
2021/05/30 12:39:12;;;;;;;1.30;1.10;;;21.50;99.90;;;;;;4958486;29;20183;-81
2021/05/30 12:41:44;;;;;;;1.70;1.33;;;21.70;99.90;;;;;;4952838;29;20206;-82
2021/05/30 12:44:20;;;;;;;3.00;1.20;;;21.60;99.80;;;;;;4939101;29;20349;-85
2021/05/30 12:47:01;;;;;;;1.57;1.13;;;21.70;99.90;;;;;;4955045;29;20206;-84
2021/05/30 12:49:26;;;;;;;1.10;1.00;;;21.80;98.80;;;;;;4938735;29;20162;-83
2021/05/30 12:52:13;;;;;;;1.00;0.80;;;21.80;96.80;;;;;;4955903;29;20272;-82
2021/05/30 12:54:39;;;;;;;2.10;0.97;;;21.80;95.50;;;;;;4954947;29;20163;-85
2021/05/30 12:57:05;;;;;;;1.43;1.20;;;21.70;96.80;;;;;;4940074;29;20270;-85